Stone Cabin, Nevada Weather observations

Data are for observation ending at time listed.
 Day   Time    Ave.   Ave.  Ave.  Vector   Max.   Stn.    Total    Solar   Ave.  
  of    of     Air    Rel.  Wind   Wind    Wind   Baro.  Precip.   Rad.    Soil  
Year   Day     Temp.  Hum.  Speed  Dir.    Gust   Pres.                    Temp. 
2014   (PST)    F      %     mph   deg.    mph     mb.     in.     W/m2     F   
------------------------------------------------------------------------------
 261    0:00   66.8    49    1.2    88      6.2    811     0.00       0    66.3
 261    1:00   66.1    51    2.7   161      8.0    810     0.00       0    65.6
 261    2:00   69.6    48    6.2   156     11.8    810     0.00       0    65.3
 261    3:00   69.6    48    6.3   153     10.9    810     0.00       0    65.2
 261    4:00   61.0    63    1.7   196      9.0    810     0.00       0    65.1
 261    5:00   59.2    68    0.9   223      4.9    816     0.00       0    64.6
 261    6:00   59.9    69    0.9   323      3.0    818     0.00       6    64.3
 261    7:00   58.0    70    1.8   333      4.0    818     0.00      65    64.2
 261    8:00   68.3    53    2.7   261     10.9    818     0.00     392    64.5
 261    9:00   74.3    38    6.7   165     16.4    818     0.00     562    65.5
 261   10:00   76.9    31    6.3   169     16.1    818     0.00     727    66.9
 261   11:00   79.2    26    6.2   156     18.4    818     0.00     835    69.2
 261   12:00   81.2    22    6.7   168     17.4    817     0.00     877    71.9
 261   13:00   82.1    17    7.9   172     19.1    816     0.00     851    73.2
 261   14:00   83.4    12    8.1   170     20.0    815     0.00     765    73.1
 261   15:00   82.8    12    6.6   157     15.6    815     0.00     613    73.0
 261   16:00   82.0    12    7.9   160     22.6    814     0.00     431    72.0
 261   17:00   79.9    11    7.0   154     13.6    814     0.00     227    70.8
 261   18:00   76.8    10    6.9   151     15.4    814     0.00      39    69.7
 261   19:00   74.4    13    7.5   153     14.5    814     0.00       1    68.7
 261   20:00   71.4    16    6.4   151     13.9    815     0.00       0    67.8
 261   21:00   63.6    24    1.9   263     10.4    816     0.00       0    67.0
 261   22:00   56.2    32    2.4   323      5.8    817     0.00       0    66.0

Return to Stone Cabin, Nevada graphs page.


Western Regional Climate Center,wrcc@dri.edu